Terminal Aerodrome Forecast
Issued by NWS

Home | Current Version | Previous Version | Text Only | Print | Product List | Glossary Off
Versions: 1 2 3 4 5 6 7 8 9 10 11 12 13 14 15 16

547
FTUS43 KGRB 291136
TAFCWA
TAF
KCWA 291136Z 2912/3012 01008KT P6SM SKC
     FM291300 02009KT P6SM SKC
     FM291600 04009G15KT P6SM SKC
     FM292200 04007KT P6SM SKC
     FM300600 04008KT P6SM SCT200=

USA.gov is the U.S. government's official web portal to all federal, state and local government web resources and services.